Time;durP1;ratioP1;P1;durP2;ratioP2;P2;SDS_P1;SDS_P2;PMS_P1;PMS_P2;Temp;Humidity;BMP_temperature;BMP_pressure;BME280_temperature;BME280_humidity;BME280_pressure;Samples;Min_cycle;Max_cycle;Signal;HPM_P1;HPM_P2
2022/05/07 00:02:07;;;;;;;337.23;195.47;;;;;;;;;;5054970;28;20465;-72
2022/05/07 00:04:36;;;;;;;331.53;192.43;;;;;;;;;;5056145;28;20543;-72
2022/05/07 00:07:04;;;;;;;379.13;188.67;;;;;;;;;;5055255;28;20509;-71
2022/05/07 00:09:40;;;;;;;327.33;180.43;;;;;;;;;;5055670;28;20449;-71
2022/05/07 00:12:08;;;;;;;317.17;179.80;;;;;;;;;;5055919;28;20468;-71
2022/05/07 00:14:36;;;;;;;337.87;179.90;;;;;;;;;;5056013;28;20546;-71
2022/05/07 00:19:50;;;;;;;349.30;174.47;;;;;;;;;;5055432;28;20530;-72
2022/05/07 00:22:18;;;;;;;330.07;167.77;;;;;;;;;;5056168;28;20457;-71
2022/05/07 00:24:49;;;;;;;335.33;163.27;;;;;;;;;;5055590;28;20741;-72
2022/05/07 00:27:16;;;;;;;350.43;182.03;;;;;;;;;;5055729;28;20535;-72
2022/05/07 00:29:44;;;;;;;402.80;176.43;;;;;;;;;;5061738;28;20476;-72
2022/05/07 00:32:12;;;;;;;398.93;168.17;;;;;;;;;;5082716;28;20857;-72
2022/05/07 00:34:40;;;;;;;369.30;164.13;;;;;;;;;;5075427;28;20552;-71
2022/05/07 00:37:07;;;;;;;374.37;175.13;;;;;;;;;;5075615;28;20495;-72
2022/05/07 00:39:35;;;;;;;366.03;156.63;;;;;;;;;;5074318;28;20554;-70
2022/05/07 00:42:05;;;;;;;382.93;162.47;;;;;;;;;;5068002;28;20828;-71
2022/05/07 00:44:33;;;;;;;390.87;169.90;;;;;;;;;;5074791;28;20471;-71
2022/05/07 00:47:08;;;;;;;388.77;161.00;;;;;;;;;;5075733;28;20737;-71
2022/05/07 00:49:36;;;;;;;381.23;152.73;;;;;;;;;;5075623;28;20800;-71
2022/05/07 00:52:04;;;;;;;393.97;151.33;;;;;;;;;;5075187;28;20460;-71
2022/05/07 00:54:32;;;;;;;397.27;150.20;;;;;;;;;;5073582;28;20553;-71
2022/05/07 00:57:00;;;;;;;401.00;159.33;;;;;;;;;;5076082;28;20472;-73
2022/05/07 00:59:29;;;;;;;390.47;146.17;;;;;;;;;;5076122;28;20749;-72
2022/05/07 01:01:57;;;;;;;392.67;148.03;;;;;;;;;;5076953;28;20463;-72
2022/05/07 01:04:24;;;;;;;383.37;145.57;;;;;;;;;;5076112;28;20805;-72
2022/05/07 01:06:52;;;;;;;403.77;165.47;;;;;;;;;;5076688;28;20540;-72
2022/05/07 01:09:20;;;;;;;393.07;152.73;;;;;;;;;;5075810;28;20488;-72
2022/05/07 01:11:48;;;;;;;390.87;163.60;;;;;;;;;;5076983;28;20467;-71
2022/05/07 01:14:16;;;;;;;384.77;158.10;;;;;;;;;;5076534;28;20627;-71
2022/05/07 01:16:45;;;;;;;397.13;159.43;;;;;;;;;;5075517;28;20460;-71
2022/05/07 01:19:20;;;;;;;390.63;145.07;;;;;;;;;;5075768;28;20716;-71
2022/05/07 01:21:49;;;;;;;397.20;167.67;;;;;;;;;;5076236;28;20695;-71
2022/05/07 01:24:17;;;;;;;391.83;160.33;;;;;;;;;;5075602;28;20453;-71
2022/05/07 01:26:45;;;;;;;374.13;168.77;;;;;;;;;;5076019;28;20559;-72
2022/05/07 01:29:12;;;;;;;400.60;161.60;;;;;;;;;;5075671;28;20776;-72
2022/05/07 01:31:40;;;;;;;392.43;146.70;;;;;;;;;;5077238;28;20495;-72
2022/05/07 01:34:08;;;;;;;400.17;161.00;;;;;;;;;;5077130;28;20752;-72
2022/05/07 01:36:36;;;;;;;375.63;149.10;;;;;;;;;;5075389;28;20526;-72
2022/05/07 01:39:05;;;;;;;341.17;163.50;;;;;;;;;;5077173;28;20941;-71
2022/05/07 01:41:33;;;;;;;390.17;148.87;;;;;;;;;;5075753;28;20457;-72
2022/05/07 01:44:01;;;;;;;400.07;160.33;;;;;;;;;;5072689;28;20452;-72
2022/05/07 01:49:14;;;;;;;379.53;152.63;;;;;;;;;;5073730;28;20488;-71
2022/05/07 01:51:42;;;;;;;391.37;142.63;;;;;;;;;;5074453;28;20476;-71
2022/05/07 01:54:11;;;;;;;383.97;151.73;;;;;;;;;;5074565;28;20765;-72
2022/05/07 01:56:39;;;;;;;346.57;156.90;;;;;;;;;;5077300;28;20459;-71
2022/05/07 01:59:07;;;;;;;355.13;157.83;;;;;;;;;;5078748;28;20871;-71
2022/05/07 02:01:35;;;;;;;353.63;144.27;;;;;;;;;;5077163;28;20875;-72
2022/05/07 02:04:03;;;;;;;345.00;156.60;;;;;;;;;;5077616;28;20469;-72
2022/05/07 02:06:30;;;;;;;359.00;149.70;;;;;;;;;;5075551;28;20452;-71
2022/05/07 02:08:58;;;;;;;360.73;158.23;;;;;;;;;;5077736;28;20484;-72
2022/05/07 02:11:27;;;;;;;339.67;149.80;;;;;;;;;;5078757;28;20492;-71
2022/05/07 02:13:55;;;;;;;368.47;149.77;;;;;;;;;;5078192;28;20452;-71
2022/05/07 02:16:26;;;;;;;346.23;156.23;;;;;;;;;;5073960;28;20471;-72
2022/05/07 02:18:54;;;;;;;361.83;153.03;;;;;;;;;;5078680;28;20872;-71
2022/05/07 02:21:22;;;;;;;360.13;146.40;;;;;;;;;;5078295;28;20452;-72
2022/05/07 02:23:50;;;;;;;335.67;150.90;;;;;;;;;;5077153;28;20563;-71
2022/05/07 02:26:17;;;;;;;312.17;139.50;;;;;;;;;;5076781;28;20555;-71
2022/05/07 02:28:47;;;;;;;340.00;146.83;;;;;;;;;;5077177;28;20574;-71
2022/05/07 02:31:15;;;;;;;335.13;149.10;;;;;;;;;;5076778;28;20517;-72
2022/05/07 02:33:42;;;;;;;360.47;148.83;;;;;;;;;;5077726;28;20461;-71
2022/05/07 02:36:13;;;;;;;317.63;133.73;;;;;;;;;;5077240;28;20732;-71
2022/05/07 02:38:40;;;;;;;370.07;144.27;;;;;;;;;;5078961;28;20547;-71
2022/05/07 02:43:55;;;;;;;355.03;141.47;;;;;;;;;;5076816;28;20741;-71
2022/05/07 02:46:22;;;;;;;345.27;145.40;;;;;;;;;;5070297;28;20484;-71
2022/05/07 02:48:50;;;;;;;296.80;141.00;;;;;;;;;;5069230;28;20497;-71
2022/05/07 02:51:18;;;;;;;330.87;150.73;;;;;;;;;;5077236;28;20535;-71
2022/05/07 02:53:48;;;;;;;332.47;155.33;;;;;;;;;;5066258;28;20454;-71
2022/05/07 02:56:18;;;;;;;298.03;144.17;;;;;;;;;;5070355;28;20555;-71
2022/05/07 02:58:46;;;;;;;289.70;153.33;;;;;;;;;;5069562;28;20465;-71
2022/05/07 03:01:15;;;;;;;293.40;136.47;;;;;;;;;;5077462;28;20499;-71
2022/05/07 03:03:43;;;;;;;330.03;153.87;;;;;;;;;;5068337;28;20574;-71
2022/05/07 03:06:11;;;;;;;331.47;143.40;;;;;;;;;;5066354;28;20452;-71
2022/05/07 03:08:39;;;;;;;324.63;145.00;;;;;;;;;;5076088;28;20532;-71
2022/05/07 03:11:08;;;;;;;316.77;148.30;;;;;;;;;;5076370;28;20456;-71
2022/05/07 03:13:36;;;;;;;307.97;141.67;;;;;;;;;;5061633;28;20465;-71
2022/05/07 03:16:04;;;;;;;316.40;138.90;;;;;;;;;;5069849;28;20452;-71
2022/05/07 03:18:35;;;;;;;317.30;150.47;;;;;;;;;;5070317;28;20464;-71
2022/05/07 03:21:03;;;;;;;337.93;137.43;;;;;;;;;;5073619;28;20461;-71
2022/05/07 03:23:31;;;;;;;327.23;144.27;;;;;;;;;;5061738;28;20456;-71
2022/05/07 03:25:59;;;;;;;320.07;144.03;;;;;;;;;;5075227;28;20488;-71
2022/05/07 03:28:27;;;;;;;313.40;132.40;;;;;;;;;;5075263;28;20480;-71
2022/05/07 03:30:55;;;;;;;323.77;139.13;;;;;;;;;;5069322;28;20457;-70
2022/05/07 03:33:23;;;;;;;318.50;130.53;;;;;;;;;;5069970;28;20886;-71
2022/05/07 03:35:55;;;;;;;326.40;136.47;;;;;;;;;;5074608;28;20456;-71
2022/05/07 03:38:22;;;;;;;340.90;138.40;;;;;;;;;;5069967;28;20770;-71
2022/05/07 03:40:50;;;;;;;344.63;137.60;;;;;;;;;;5057717;28;20454;-70
2022/05/07 03:43:18;;;;;;;370.93;141.03;;;;;;;;;;5073957;28;20464;-71
2022/05/07 03:45:46;;;;;;;338.53;137.60;;;;;;;;;;5075040;28;20452;-71
2022/05/07 03:48:14;;;;;;;344.53;136.67;;;;;;;;;;5072268;28;20469;-71
2022/05/07 03:50:41;;;;;;;350.27;133.00;;;;;;;;;;5072738;28;20907;-72
2022/05/07 03:55:56;;;;;;;337.63;136.07;;;;;;;;;;5073783;28;20447;-71
2022/05/07 03:58:25;;;;;;;378.27;126.23;;;;;;;;;;5061376;28;20525;-70
2022/05/07 04:00:54;;;;;;;381.33;124.63;;;;;;;;;;5071525;28;20452;-70
2022/05/07 04:03:22;;;;;;;378.77;124.67;;;;;;;;;;5052970;28;20463;-71
2022/05/07 04:05:50;;;;;;;382.50;128.47;;;;;;;;;;5056380;28;20537;-71
2022/05/07 04:08:20;;;;;;;374.17;115.17;;;;;;;;;;5050843;28;20572;-71
2022/05/07 04:10:48;;;;;;;383.63;122.33;;;;;;;;;;5056665;28;20461;-71
2022/05/07 04:13:16;;;;;;;385.90;124.83;;;;;;;;;;5056093;28;20460;-71
2022/05/07 04:15:44;;;;;;;381.40;118.40;;;;;;;;;;5055565;28;20534;-71
2022/05/07 04:18:13;;;;;;;386.10;126.07;;;;;;;;;;5055023;28;20458;-71
2022/05/07 04:20:40;;;;;;;378.80;120.83;;;;;;;;;;5055545;28;20457;-71
2022/05/07 04:23:08;;;;;;;372.23;120.20;;;;;;;;;;5070496;28;20460;-71
2022/05/07 04:25:38;;;;;;;381.50;128.73;;;;;;;;;;5075100;28;20869;-70
2022/05/07 04:28:06;;;;;;;386.03;126.13;;;;;;;;;;5074939;28;20456;-70
2022/05/07 04:30:35;;;;;;;384.50;132.70;;;;;;;;;;5073041;28;20839;-70
2022/05/07 04:33:02;;;;;;;381.37;128.57;;;;;;;;;;5074405;28;20526;-71
2022/05/07 04:35:44;;;;;;;377.10;135.73;;;;;;;;;;5074789;28;20740;-71
2022/05/07 04:38:15;;;;;;;386.90;147.30;;;;;;;;;;5065602;28;20483;-71
2022/05/07 04:40:49;;;;;;;383.00;138.67;;;;;;;;;;5075647;28;20460;-71
2022/05/07 04:43:21;;;;;;;369.77;153.63;;;;;;;;;;5069032;28;20720;-71
2022/05/07 04:45:49;;;;;;;381.33;128.67;;;;;;;;;;5075063;28;20953;-71
2022/05/07 04:48:16;;;;;;;388.07;135.00;;;;;;;;;;5074458;28;20555;-70
2022/05/07 04:50:44;;;;;;;381.33;125.03;;;;;;;;;;5073926;28;20480;-72
2022/05/07 04:53:12;;;;;;;393.47;135.67;;;;;;;;;;5074283;28;20445;-71
2022/05/07 04:55:40;;;;;;;391.87;135.37;;;;;;;;;;5074890;28;20547;-71
2022/05/07 04:58:09;;;;;;;382.33;125.13;;;;;;;;;;5074513;28;20743;-72
2022/05/07 05:00:37;;;;;;;384.37;136.53;;;;;;;;;;5068693;28;20519;-72
2022/05/07 05:03:07;;;;;;;390.33;135.43;;;;;;;;;;5064382;28;20619;-71
2022/05/07 05:05:36;;;;;;;385.87;137.37;;;;;;;;;;5074856;28;20465;-72
2022/05/07 05:08:04;;;;;;;392.73;143.97;;;;;;;;;;5074699;28;20457;-72
2022/05/07 05:10:48;;;;;;;390.53;159.73;;;;;;;;;;5074447;28;20924;-70
2022/05/07 05:13:17;;;;;;;393.57;149.87;;;;;;;;;;5075511;28;20532;-73
2022/05/07 05:15:48;;;;;;;402.57;161.53;;;;;;;;;;5075784;28;20500;-73
2022/05/07 05:18:22;;;;;;;398.87;158.70;;;;;;;;;;5075391;28;20779;-73
2022/05/07 05:20:49;;;;;;;397.73;166.37;;;;;;;;;;5075166;28;20526;-74
2022/05/07 05:23:17;;;;;;;401.50;161.27;;;;;;;;;;5075361;28;20555;-74
2022/05/07 05:25:48;;;;;;;390.40;156.23;;;;;;;;;;5076059;28;20456;-73
2022/05/07 05:28:17;;;;;;;397.77;156.90;;;;;;;;;;5066249;28;20450;-72
2022/05/07 05:30:51;;;;;;;400.47;165.43;;;;;;;;;;5072801;28;20492;-73
2022/05/07 05:33:19;;;;;;;415.17;160.20;;;;;;;;;;5079115;28;20452;-72
2022/05/07 05:35:46;;;;;;;404.43;171.60;;;;;;;;;;5079240;28;20498;-73
2022/05/07 05:38:15;;;;;;;399.90;161.50;;;;;;;;;;5079935;28;20900;-73
2022/05/07 05:40:45;;;;;;;402.63;177.53;;;;;;;;;;5079561;28;20471;-72
2022/05/07 05:43:17;;;;;;;408.57;183.07;;;;;;;;;;5075516;28;20460;-72
2022/05/07 05:46:24;;;;;;;408.57;193.10;;;;;;;;;;5077245;28;20559;-72
2022/05/07 05:48:53;;;;;;;396.07;161.77;;;;;;;;;;5035123;28;20560;-71
2022/05/07 05:51:21;;;;;;;404.20;182.20;;;;;;;;;;5077497;28;20599;-71
2022/05/07 05:53:49;;;;;;;399.13;164.87;;;;;;;;;;5078241;28;20452;-71
2022/05/07 05:56:17;;;;;;;405.70;179.03;;;;;;;;;;5079141;28;20462;-70
2022/05/07 05:58:45;;;;;;;406.57;187.90;;;;;;;;;;5074744;28;20727;-70
2022/05/07 06:01:13;;;;;;;410.93;224.60;;;;;;;;;;5077938;28;20468;-70
2022/05/07 06:03:43;;;;;;;395.20;208.13;;;;;;;;;;5077482;28;20452;-70
2022/05/07 06:06:12;;;;;;;411.47;201.30;;;;;;;;;;5077733;28;20821;-70
2022/05/07 06:08:42;;;;;;;404.47;199.27;;;;;;;;;;5073751;28;20457;-71
2022/05/07 06:11:10;;;;;;;409.93;197.63;;;;;;;;;;5072936;28;20492;-70
2022/05/07 06:13:42;;;;;;;410.50;209.40;;;;;;;;;;5077819;28;20459;-70
2022/05/07 06:16:10;;;;;;;397.13;187.27;;;;;;;;;;5077608;28;20460;-69
2022/05/07 06:18:38;;;;;;;412.60;216.70;;;;;;;;;;5075673;28;20506;-70
2022/05/07 06:21:11;;;;;;;403.73;194.77;;;;;;;;;;5048244;28;20472;-70
2022/05/07 06:23:41;;;;;;;396.13;180.00;;;;;;;;;;5075741;28;20484;-70
2022/05/07 06:28:53;;;;;;;410.00;215.83;;;;;;;;;;5076225;28;20510;-70
2022/05/07 06:31:21;;;;;;;403.67;182.67;;;;;;;;;;5076704;28;20452;-70
2022/05/07 06:33:49;;;;;;;391.07;187.97;;;;;;;;;;5075463;28;20452;-70
2022/05/07 06:36:17;;;;;;;408.20;207.73;;;;;;;;;;5076982;28;20460;-70
2022/05/07 06:38:47;;;;;;;403.70;191.37;;;;;;;;;;5062399;28;20557;-71
2022/05/07 06:41:15;;;;;;;402.13;183.00;;;;;;;;;;5076029;28;20475;-70
2022/05/07 06:43:43;;;;;;;420.90;214.67;;;;;;;;;;5078235;28;20465;-70
2022/05/07 06:46:10;;;;;;;408.70;209.17;;;;;;;;;;5067552;28;20889;-70
2022/05/07 06:48:38;;;;;;;417.63;201.83;;;;;;;;;;5072970;28;20466;-70
2022/05/07 06:51:06;;;;;;;410.87;192.83;;;;;;;;;;5073648;28;21009;-71
2022/05/07 06:53:34;;;;;;;403.23;184.87;;;;;;;;;;5077181;28;20495;-69
2022/05/07 06:56:04;;;;;;;402.90;192.10;;;;;;;;;;5076256;28;20553;-70
2022/05/07 06:58:32;;;;;;;407.10;192.80;;;;;;;;;;5075881;28;20871;-70
2022/05/07 07:01:01;;;;;;;399.37;179.93;;;;;;;;;;5072680;28;20781;-71
2022/05/07 07:03:30;;;;;;;407.13;205.20;;;;;;;;;;5076607;28;20521;-70
2022/05/07 07:05:58;;;;;;;417.80;224.03;;;;;;;;;;5063907;28;20453;-70
2022/05/07 07:08:29;;;;;;;409.77;216.27;;;;;;;;;;5061699;28;20463;-70
2022/05/07 07:11:00;;;;;;;408.53;194.60;;;;;;;;;;5075946;28;20487;-70
2022/05/07 07:13:29;;;;;;;402.33;185.43;;;;;;;;;;5075608;28;20582;-69
2022/05/07 07:15:57;;;;;;;403.60;194.63;;;;;;;;;;5074908;28;20573;-69
2022/05/07 07:18:25;;;;;;;426.97;242.83;;;;;;;;;;5076126;28;20463;-69
2022/05/07 07:20:53;;;;;;;418.03;235.60;;;;;;;;;;5076726;28;20465;-70
2022/05/07 07:23:21;;;;;;;416.57;230.57;;;;;;;;;;5075053;28;20748;-70
2022/05/07 07:25:53;;;;;;;420.70;242.80;;;;;;;;;;5075292;28;20457;-70
2022/05/07 07:28:21;;;;;;;414.07;224.50;;;;;;;;;;5066054;28;20742;-70
2022/05/07 07:30:51;;;;;;;419.73;245.93;;;;;;;;;;5074450;28;20512;-70
2022/05/07 07:33:19;;;;;;;409.47;237.07;;;;;;;;;;5076098;28;20535;-71
2022/05/07 07:35:47;;;;;;;417.03;233.93;;;;;;;;;;5063193;28;20448;-71
2022/05/07 07:38:15;;;;;;;390.53;280.23;;;;;;;;;;5075986;28;20514;-69
2022/05/07 07:40:50;;;;;;;408.83;235.73;;;;;;;;;;5082033;28;20467;-71
2022/05/07 07:43:18;;;;;;;406.60;292.37;;;;;;;;;;5069731;28;20839;-72
2022/05/07 07:48:33;;;;;;;414.10;292.63;;;;;;;;;;5053193;28;20614;-71
2022/05/07 07:51:01;;;;;;;413.33;268.57;;;;;;;;;;5072433;28;20484;-71
2022/05/07 07:53:29;;;;;;;416.87;275.57;;;;;;;;;;5073978;28;20459;-70
2022/05/07 07:55:57;;;;;;;430.23;285.33;;;;;;;;;;5073930;28;20456;-70
2022/05/07 07:58:25;;;;;;;401.50;300.00;;;;;;;;;;5072496;28;20498;-72
2022/05/07 08:00:54;;;;;;;424.43;266.47;;;;;;;;;;5074776;28;20452;-72
2022/05/07 08:03:22;;;;;;;432.43;292.77;;;;;;;;;;5072889;28;20559;-71
2022/05/07 08:05:53;;;;;;;419.53;250.90;;;;;;;;;;5074798;28;20472;-71
2022/05/07 08:13:54;;;;;;;434.07;294.90;;;;;;;;;;5074364;28;20459;-70
2022/05/07 08:16:23;;;;;;;433.30;304.17;;;;;;;;;;5079027;28;20457;-69
2022/05/07 08:18:53;;;;;;;427.33;279.83;;;;;;;;;;5073318;28;20965;-70
2022/05/07 08:21:26;;;;;;;413.30;295.90;;;;;;;;;;5074561;28;20475;-69
2022/05/07 08:24:11;;;;;;;396.47;280.27;;;;;;;;;;5076191;28;20447;-70
2022/05/07 08:26:43;;;;;;;402.43;255.77;;;;;;;;;;5078171;28;20466;-71
2022/05/07 08:29:11;;;;;;;385.23;257.53;;;;;;;;;;5073502;28;20864;-71
2022/05/07 08:31:38;;;;;;;401.37;294.70;;;;;;;;;;5073113;28;20609;-70
2022/05/07 08:34:06;;;;;;;392.63;284.30;;;;;;;;;;5080021;28;20468;-69
2022/05/07 08:36:36;;;;;;;408.67;250.83;;;;;;;;;;5073463;28;20453;-69
2022/05/07 08:39:04;;;;;;;396.70;286.50;;;;;;;;;;5077169;28;20465;-70
2022/05/07 08:41:32;;;;;;;416.13;243.47;;;;;;;;;;5074707;28;20448;-70
2022/05/07 08:44:00;;;;;;;392.10;286.33;;;;;;;;;;5065487;28;20610;-70
2022/05/07 08:46:29;;;;;;;413.23;263.07;;;;;;;;;;5073434;28;20539;-69
2022/05/07 08:49:02;;;;;;;370.73;245.97;;;;;;;;;;5071536;28;20476;-70
2022/05/07 08:51:30;;;;;;;396.30;281.03;;;;;;;;;;5059002;28;20806;-70
2022/05/07 08:54:00;;;;;;;412.13;285.37;;;;;;;;;;5073175;28;20883;-70
2022/05/07 08:56:28;;;;;;;427.63;282.37;;;;;;;;;;5063219;28;20461;-69
2022/05/07 08:59:01;;;;;;;425.00;260.80;;;;;;;;;;5056250;28;20468;-70
2022/05/07 09:01:29;;;;;;;431.93;284.23;;;;;;;;;;5064704;28;20469;-70
2022/05/07 09:04:13;;;;;;;426.47;272.23;;;;;;;;;;5061480;28;20523;-70
2022/05/07 09:09:48;;;;;;;368.13;260.43;;;;;;;;;;5033373;28;20610;-71
2022/05/07 09:12:28;;;;;;;358.50;272.23;;;;;;;;;;5072626;28;20467;-71
2022/05/07 09:15:13;;;;;;;376.80;273.47;;;;;;;;;;5071545;28;20464;-68
2022/05/07 09:17:50;;;;;;;414.77;244.63;;;;;;;;;;5061939;28;20559;-69
2022/05/07 09:23:16;;;;;;;408.40;286.80;;;;;;;;;;5060057;28;20530;-69
2022/05/07 09:25:52;;;;;;;401.90;251.47;;;;;;;;;;5072858;28;20445;-70
2022/05/07 09:28:30;;;;;;;431.60;281.70;;;;;;;;;;5071714;28;20452;-70
2022/05/07 09:30:59;;;;;;;392.83;319.80;;;;;;;;;;5075066;28;20791;-71
2022/05/07 09:33:35;;;;;;;390.67;328.07;;;;;;;;;;5072571;28;20453;-72
2022/05/07 09:36:11;;;;;;;397.57;312.70;;;;;;;;;;5061528;28;20563;-72
2022/05/07 09:38:49;;;;;;;405.47;331.37;;;;;;;;;;5070278;28;20858;-72
2022/05/07 09:41:25;;;;;;;406.67;316.23;;;;;;;;;;5045593;28;20454;-72
2022/05/07 09:43:53;;;;;;;388.33;283.07;;;;;;;;;;5056278;28;20461;-72
2022/05/07 09:46:30;;;;;;;425.17;329.37;;;;;;;;;;5069714;28;20723;-72
2022/05/07 09:49:00;;;;;;;417.77;310.83;;;;;;;;;;5060330;28;20575;-72
2022/05/07 09:51:29;;;;;;;418.40;314.90;;;;;;;;;;5072272;28;20942;-72
2022/05/07 09:59:51;;;;;;;423.47;310.97;;;;;;;;;;5005264;28;21013;-72
2022/05/07 10:02:26;;;;;;;409.13;345.37;;;;;;;;;;5027375;28;20534;-72
2022/05/07 10:05:03;;;;;;;438.47;387.50;;;;;;;;;;4981320;28;20486;-72
2022/05/07 10:08:00;;;;;;;427.30;380.53;;;;;;;;;;4990861;28;20470;-71
2022/05/07 10:10:41;;;;;;;455.50;405.60;;;;;;;;;;4989338;28;20540;-71
2022/05/07 10:13:20;;;;;;;430.60;359.63;;;;;;;;;;4989480;28;20657;-71
2022/05/07 10:18:45;;;;;;;420.87;326.63;;;;;;;;;;4992404;28;20451;-72
2022/05/07 10:21:19;;;;;;;448.07;387.50;;;;;;;;;;5023499;28;20491;-70
2022/05/07 10:23:54;;;;;;;457.53;387.33;;;;;;;;;;5050755;28;20530;-71
2022/05/07 10:26:24;;;;;;;439.73;323.43;;;;;;;;;;5059908;28;20914;-70
2022/05/07 10:29:23;;;;;;;430.30;340.33;;;;;;;;;;5061143;28;20820;-70
2022/05/07 10:31:54;;;;;;;452.97;373.30;;;;;;;;;;5052959;28;20491;-71
2022/05/07 10:34:27;;;;;;;428.60;339.20;;;;;;;;;;5053878;28;20487;-71
2022/05/07 10:37:03;;;;;;;447.67;336.10;;;;;;;;;;5055220;28;20456;-71
2022/05/07 10:39:32;;;;;;;438.17;311.23;;;;;;;;;;5053902;28;20615;-69
2022/05/07 10:42:02;;;;;;;447.97;331.83;;;;;;;;;;5055760;28;20488;-70
2022/05/07 10:44:38;;;;;;;441.17;355.13;;;;;;;;;;5053710;28;20464;-71
2022/05/07 10:47:14;;;;;;;438.53;340.33;;;;;;;;;;5053616;28;20488;-72
2022/05/07 10:50:03;;;;;;;427.63;274.40;;;;;;;;;;5054443;28;20928;-73
2022/05/07 10:52:57;;;;;;;427.93;278.93;;;;;;;;;;5052641;28;20500;-72
2022/05/07 10:55:33;;;;;;;433.17;290.50;;;;;;;;;;5054050;28;20485;-73
2022/05/07 10:58:02;;;;;;;438.73;324.03;;;;;;;;;;5038927;28;20477;-72
2022/05/07 11:00:46;;;;;;;439.13;318.80;;;;;;;;;;5057772;28;20524;-71
2022/05/07 11:03:26;;;;;;;451.90;346.43;;;;;;;;;;5057774;28;20527;-71
2022/05/07 11:06:20;;;;;;;436.60;303.47;;;;;;;;;;5057277;28;20564;-71
2022/05/07 11:08:55;;;;;;;435.40;315.43;;;;;;;;;;5054484;28;20878;-72
2022/05/07 11:11:27;;;;;;;445.40;341.07;;;;;;;;;;5056028;28;20835;-72
2022/05/07 11:14:00;;;;;;;437.23;310.00;;;;;;;;;;5046997;28;20535;-71
2022/05/07 11:16:30;;;;;;;435.17;313.37;;;;;;;;;;5052933;28;20458;-71
2022/05/07 11:19:00;;;;;;;440.00;308.20;;;;;;;;;;5054744;28;20469;-72
2022/05/07 11:21:28;;;;;;;444.80;320.77;;;;;;;;;;5053739;28;20483;-71
2022/05/07 11:23:56;;;;;;;435.50;318.60;;;;;;;;;;5053328;28;20458;-71
2022/05/07 11:26:30;;;;;;;435.90;322.37;;;;;;;;;;5054370;28;20469;-71
2022/05/07 11:28:59;;;;;;;434.23;287.47;;;;;;;;;;5052788;28;20453;-71
2022/05/07 11:31:28;;;;;;;434.47;309.73;;;;;;;;;;5053702;28;20492;-71
2022/05/07 11:34:15;;;;;;;435.77;318.13;;;;;;;;;;5058986;28;20457;-71
2022/05/07 11:36:48;;;;;;;429.87;291.80;;;;;;;;;;5051481;28;20497;-70
2022/05/07 11:39:23;;;;;;;434.47;295.87;;;;;;;;;;5036160;28;20468;-72
2022/05/07 11:41:58;;;;;;;429.40;294.17;;;;;;;;;;5053178;28;20573;-71
2022/05/07 11:47:22;;;;;;;431.73;294.87;;;;;;;;;;5017656;28;20563;-71
2022/05/07 11:50:06;;;;;;;438.80;321.20;;;;;;;;;;5058157;28;20768;-71
2022/05/07 11:52:38;;;;;;;440.57;335.10;;;;;;;;;;5052447;28;20489;-72
2022/05/07 11:57:54;;;;;;;433.60;322.57;;;;;;;;;;5047789;28;20515;-71
2022/05/07 12:00:23;;;;;;;442.67;336.67;;;;;;;;;;5047619;28;20454;-71
2022/05/07 12:02:51;;;;;;;439.13;331.00;;;;;;;;;;5050835;28;20546;-71
2022/05/07 12:05:21;;;;;;;430.90;308.60;;;;;;;;;;5052879;28;20847;-71
2022/05/07 12:07:50;;;;;;;433.47;332.63;;;;;;;;;;5052642;28;20469;-71
2022/05/07 12:10:18;;;;;;;440.67;350.87;;;;;;;;;;5052362;28;20515;-71
2022/05/07 12:12:57;;;;;;;442.20;379.03;;;;;;;;;;5052145;28;20485;-72
2022/05/07 12:18:20;;;;;;;438.87;342.27;;;;;;;;;;5052539;28;20461;-75
2022/05/07 12:32:01;;;;;;;442.47;344.57;;;;;;;;;;5053501;28;20485;-71
2022/05/07 12:34:33;;;;;;;443.03;360.20;;;;;;;;;;5051498;28;20454;-71
2022/05/07 12:40:05;;;;;;;444.97;354.33;;;;;;;;;;5008094;28;20911;-72
2022/05/07 12:42:33;;;;;;;434.73;323.40;;;;;;;;;;5044353;28;20866;-71
2022/05/07 12:45:22;;;;;;;447.90;370.33;;;;;;;;;;5053321;28;20517;-73
2022/05/07 12:47:53;;;;;;;436.47;308.30;;;;;;;;;;5057187;28;20476;-72
2022/05/07 12:50:22;;;;;;;438.97;344.37;;;;;;;;;;5048230;28;20808;-73
2022/05/07 12:52:52;;;;;;;438.90;336.83;;;;;;;;;;5052731;28;20480;-72
2022/05/07 12:55:21;;;;;;;441.60;364.60;;;;;;;;;;5053297;28;20489;-72
2022/05/07 12:57:59;;;;;;;441.17;336.77;;;;;;;;;;5053778;28;20533;-73
2022/05/07 13:00:30;;;;;;;444.20;365.67;;;;;;;;;;5054619;28;20777;-73
2022/05/07 13:03:12;;;;;;;446.63;360.93;;;;;;;;;;5053548;28;20469;-74
2022/05/07 13:05:43;;;;;;;438.10;349.50;;;;;;;;;;5052119;28;20464;-73
2022/05/07 13:08:14;;;;;;;446.90;380.63;;;;;;;;;;5054869;28;20543;-73
2022/05/07 13:10:43;;;;;;;431.23;317.13;;;;;;;;;;5054192;28;20465;-74
2022/05/07 13:13:14;;;;;;;443.83;353.87;;;;;;;;;;5055203;28;20486;-72
2022/05/07 13:15:42;;;;;;;438.23;354.47;;;;;;;;;;5067677;28;20465;-74
2022/05/07 13:18:13;;;;;;;434.87;330.90;;;;;;;;;;5047343;28;20488;-72
2022/05/07 13:20:49;;;;;;;456.77;401.20;;;;;;;;;;5044249;28;20453;-73
2022/05/07 13:23:22;;;;;;;437.43;356.80;;;;;;;;;;5053407;28;20503;-74
2022/05/07 13:25:51;;;;;;;429.20;324.37;;;;;;;;;;5058541;28;20445;-73
2022/05/07 13:28:20;;;;;;;428.43;314.77;;;;;;;;;;5052695;28;20548;-74
2022/05/07 13:30:56;;;;;;;440.13;352.07;;;;;;;;;;5053379;28;20473;-75
2022/05/07 13:33:24;;;;;;;425.53;302.13;;;;;;;;;;5051219;28;20545;-73
2022/05/07 13:35:57;;;;;;;426.17;315.73;;;;;;;;;;5052452;28;20484;-74
2022/05/07 13:38:33;;;;;;;441.63;352.07;;;;;;;;;;5050990;28;20547;-73
2022/05/07 13:41:05;;;;;;;436.30;358.77;;;;;;;;;;5052122;28;20457;-73
2022/05/07 13:43:33;;;;;;;446.50;369.90;;;;;;;;;;5056707;28;20558;-74
2022/05/07 13:46:04;;;;;;;434.50;326.00;;;;;;;;;;5071926;28;20452;-74
2022/05/07 13:48:32;;;;;;;431.33;317.80;;;;;;;;;;5050546;28;20449;-74
2022/05/07 13:51:05;;;;;;;440.00;352.50;;;;;;;;;;5053146;28;20448;-74
2022/05/07 13:53:38;;;;;;;433.33;329.63;;;;;;;;;;5055901;28;20487;-74
2022/05/07 13:56:08;;;;;;;441.07;371.33;;;;;;;;;;5060624;28;20453;-73
2022/05/07 13:58:37;;;;;;;434.13;331.13;;;;;;;;;;5064409;28;20540;-72
2022/05/07 14:01:06;;;;;;;432.40;337.50;;;;;;;;;;5056038;28;20524;-73
2022/05/07 14:03:34;;;;;;;439.00;375.73;;;;;;;;;;5054911;28;21051;-72
2022/05/07 14:06:04;;;;;;;436.57;333.20;;;;;;;;;;5053442;28;20461;-72
2022/05/07 14:08:34;;;;;;;432.90;351.70;;;;;;;;;;5054783;28;20616;-72
2022/05/07 14:11:08;;;;;;;443.97;340.07;;;;;;;;;;5053488;28;20449;-72
2022/05/07 14:13:36;;;;;;;432.77;324.13;;;;;;;;;;5054584;28;20903;-73
2022/05/07 14:16:08;;;;;;;440.37;337.20;;;;;;;;;;5054598;28;20543;-74
2022/05/07 14:18:36;;;;;;;463.80;322.47;;;;;;;;;;5054740;28;20939;-71
2022/05/07 14:21:06;;;;;;;434.23;313.27;;;;;;;;;;5054703;28;20454;-73
2022/05/07 14:23:34;;;;;;;439.23;330.37;;;;;;;;;;5054017;28;20468;-73
2022/05/07 14:26:03;;;;;;;436.73;314.80;;;;;;;;;;5054633;28;20476;-73
2022/05/07 14:28:35;;;;;;;439.87;339.83;;;;;;;;;;5055891;28;20473;-73
2022/05/07 14:31:07;;;;;;;433.20;331.90;;;;;;;;;;5055092;28;20461;-73
2022/05/07 14:33:36;;;;;;;421.20;343.13;;;;;;;;;;5055871;28;20922;-73
2022/05/07 14:36:04;;;;;;;423.10;324.47;;;;;;;;;;5055631;28;20487;-72
2022/05/07 14:38:33;;;;;;;422.40;375.83;;;;;;;;;;5055414;28;20461;-72
2022/05/07 14:41:01;;;;;;;430.70;349.37;;;;;;;;;;5054921;28;20464;-71
2022/05/07 14:46:21;;;;;;;425.40;325.10;;;;;;;;;;5048554;28;20462;-71
2022/05/07 14:51:51;;;;;;;435.20;319.30;;;;;;;;;;5044843;28;20464;-73
2022/05/07 14:54:27;;;;;;;401.37;339.20;;;;;;;;;;5053618;28;20564;-73
2022/05/07 14:57:05;;;;;;;435.80;320.37;;;;;;;;;;5056310;28;20448;-73
2022/05/07 14:59:33;;;;;;;434.53;326.27;;;;;;;;;;5036046;28;20900;-74
2022/05/07 15:02:36;;;;;;;441.27;355.00;;;;;;;;;;5054602;28;21011;-73
2022/05/07 15:05:09;;;;;;;430.37;317.83;;;;;;;;;;5055305;28;20519;-72
2022/05/07 15:07:38;;;;;;;429.83;338.10;;;;;;;;;;5054171;28;20540;-75
2022/05/07 15:13:01;;;;;;;430.37;330.20;;;;;;;;;;5050679;28;20492;-72
2022/05/07 15:15:33;;;;;;;445.60;343.63;;;;;;;;;;5054024;28;20446;-72
2022/05/07 15:18:05;;;;;;;436.23;338.10;;;;;;;;;;5055365;28;20656;-72
2022/05/07 15:20:41;;;;;;;425.10;279.83;;;;;;;;;;5054065;28;20469;-72